Time,TemperatureF,DewpointF,PressureIn,WindDirection,WindDirectionDegrees,WindSpeedMPH,WindSpeedGustMPH,Humidity,HourlyPrecipIn,Conditions,Clouds,dailyrainin,SolarRadiationWatts/m^2,SoftwareType,DateUTC
2013-08-17 00:01:00,69.0,42.0,-100.00,North,0,8.0,13.0,38,0.00,,,0.00,3.000000,,2013-08-17 07:01:00,
2013-08-17 00:11:00,69.0,42.0,-100.00,North,0,8.0,13.0,38,0.00,,,0.00,3.000000,,2013-08-17 07:11:00,
2013-08-17 00:42:00,69.0,43.0,-100.00,North,0,9.0,12.0,39,0.00,,,-99.99,2.000000,,2013-08-17 07:42:00,
2013-08-17 00:52:00,69.0,43.0,-100.00,North,0,9.0,12.0,39,0.00,,,-99.99,2.000000,,2013-08-17 07:52:00,
2013-08-17 01:01:00,69.0,43.0,-100.00,North,0,9.0,12.0,39,0.00,,,-99.99,2.000000,,2013-08-17 08:01:00,
2013-08-17 01:11:00,69.0,43.0,-100.00,North,0,9.0,12.0,39,0.00,,,-99.99,2.000000,,2013-08-17 08:11:00,
2013-08-17 01:42:00,68.0,43.0,-100.00,North,0,7.0,11.0,40,0.00,,,0.00,3.000000,,2013-08-17 08:42:00,
2013-08-17 01:52:00,68.0,43.0,-100.00,North,0,7.0,11.0,40,0.00,,,0.00,3.000000,,2013-08-17 08:52:00,
2013-08-17 02:01:00,68.0,43.0,-100.00,North,0,7.0,11.0,40,0.00,,,0.00,3.000000,,2013-08-17 09:01:00,
2013-08-17 02:11:00,68.0,43.0,-100.00,North,0,7.0,11.0,40,0.00,,,0.00,3.000000,,2013-08-17 09:11:00,
2013-08-17 02:43:00,67.0,40.0,-100.00,North,1,8.0,11.0,37,0.00,,,0.00,3.000000,,2013-08-17 09:43:00,
2013-08-17 02:53:00,67.0,40.0,-100.00,North,1,8.0,11.0,37,0.00,,,0.00,3.000000,,2013-08-17 09:53:00,
2013-08-17 03:03:00,67.0,40.0,-100.00,North,1,8.0,11.0,37,0.00,,,0.00,3.000000,,2013-08-17 10:03:00,
2013-08-17 03:12:00,67.0,40.0,-100.00,North,1,8.0,11.0,37,0.00,,,0.00,3.000000,,2013-08-17 10:12:00,
2013-08-17 03:42:00,64.0,43.0,-100.00,North,1,7.0,11.0,47,0.00,,,0.00,3.000000,,2013-08-17 10:42:00,
2013-08-17 03:52:00,64.0,43.0,-100.00,North,1,7.0,11.0,47,0.00,,,0.00,3.000000,,2013-08-17 10:52:00,
2013-08-17 04:02:00,64.0,43.0,-100.00,North,1,7.0,11.0,47,0.00,,,0.00,3.000000,,2013-08-17 11:02:00,
2013-08-17 04:11:00,64.0,43.0,-100.00,North,1,7.0,11.0,47,0.00,,,0.00,3.000000,,2013-08-17 11:11:00,
2013-08-17 04:42:00,65.0,45.0,-100.00,North,1,8.0,11.0,48,0.00,,,0.00,3.000000,,2013-08-17 11:42:00,
2013-08-17 04:52:00,65.0,45.0,-100.00,North,1,8.0,11.0,48,0.00,,,0.00,3.000000,,2013-08-17 11:52:00,
2013-08-17 05:01:00,65.0,45.0,-100.00,North,1,8.0,11.0,48,0.00,,,0.00,3.000000,,2013-08-17 12:01:00,
2013-08-17 05:11:00,65.0,45.0,-100.00,North,1,8.0,11.0,48,0.00,,,0.00,3.000000,,2013-08-17 12:11:00,
2013-08-17 05:42:00,64.0,47.0,-100.00,North,1,7.0,12.0,53,0.00,,,-99.99,3.000000,,2013-08-17 12:42:00,
2013-08-17 05:52:00,64.0,47.0,-100.00,North,1,7.0,12.0,53,0.00,,,-99.99,3.000000,,2013-08-17 12:52:00,
2013-08-17 06:01:00,64.0,47.0,-100.00,North,1,7.0,12.0,53,0.00,,,-99.99,3.000000,,2013-08-17 13:01:00,
2013-08-17 06:11:00,64.0,47.0,-100.00,North,1,7.0,12.0,53,0.00,,,-99.99,3.000000,,2013-08-17 13:11:00,
2013-08-17 06:42:00,65.0,47.0,-100.00,North,1,8.0,10.0,53,0.00,,,0.00,4.000000,,2013-08-17 13:42:00,
2013-08-17 06:52:00,65.0,47.0,-100.00,North,1,8.0,10.0,53,0.00,,,0.00,4.000000,,2013-08-17 13:52:00,
2013-08-17 07:01:00,65.0,47.0,-100.00,North,1,8.0,10.0,53,0.00,,,0.00,4.000000,,2013-08-17 14:01:00,
2013-08-17 07:11:00,65.0,47.0,-100.00,North,1,8.0,10.0,53,0.00,,,0.00,4.000000,,2013-08-17 14:11:00,
2013-08-17 07:42:00,68.0,49.0,-100.00,North,1,8.0,12.0,50,0.00,,,0.00,62.000000,,2013-08-17 14:42:00,
2013-08-17 07:52:00,68.0,49.0,-100.00,North,1,8.0,12.0,50,0.00,,,0.00,62.000000,,2013-08-17 14:52:00,
2013-08-17 08:01:00,68.0,49.0,-100.00,North,1,8.0,12.0,50,0.00,,,0.00,62.000000,,2013-08-17 15:01:00,
2013-08-17 08:11:00,68.0,49.0,-100.00,North,1,8.0,12.0,50,0.00,,,0.00,62.000000,,2013-08-17 15:11:00,
2013-08-17 08:44:00,70.0,48.0,-100.00,North,0,8.0,14.0,46,0.00,,,0.00,283.000000,,2013-08-17 15:44:00,
2013-08-17 08:53:00,70.0,48.0,-100.00,North,0,8.0,14.0,46,0.00,,,0.00,283.000000,,2013-08-17 15:53:00,
2013-08-17 09:03:00,70.0,48.0,-100.00,North,0,8.0,14.0,46,0.00,,,0.00,283.000000,,2013-08-17 16:03:00,
2013-08-17 09:12:00,70.0,48.0,-100.00,North,0,8.0,14.0,46,0.00,,,0.00,283.000000,,2013-08-17 16:12:00,
2013-08-17 09:42:00,73.0,49.0,-100.00,North,0,8.0,12.0,42,0.00,,,0.00,520.000000,,2013-08-17 16:42:00,
2013-08-17 09:53:00,73.0,49.0,-100.00,North,0,8.0,12.0,42,0.00,,,0.00,520.000000,,2013-08-17 16:53:00,
2013-08-17 10:02:00,73.0,49.0,-100.00,North,0,8.0,12.0,42,0.00,,,0.00,520.000000,,2013-08-17 17:02:00,
2013-08-17 10:12:00,73.0,49.0,-100.00,North,0,8.0,12.0,42,0.00,,,0.00,520.000000,,2013-08-17 17:12:00,
2013-08-17 10:42:00,76.0,49.0,-100.00,North,0,9.0,12.0,38,0.00,,,0.00,735.000000,,2013-08-17 17:42:00,
2013-08-17 10:52:00,76.0,49.0,-100.00,North,0,9.0,12.0,38,0.00,,,0.00,735.000000,,2013-08-17 17:52:00,
2013-08-17 11:02:00,76.0,49.0,-100.00,North,0,9.0,12.0,38,0.00,,,0.00,735.000000,,2013-08-17 18:02:00,
2013-08-17 11:11:00,76.0,49.0,-100.00,North,0,9.0,12.0,38,0.00,,,0.00,735.000000,,2013-08-17 18:11:00,
2013-08-17 11:42:00,78.0,50.0,-100.00,North,0,9.0,16.0,37,0.00,,,0.00,908.000000,,2013-08-17 18:42:00,
2013-08-17 11:52:00,78.0,50.0,-100.00,North,0,9.0,16.0,37,0.00,,,0.00,908.000000,,2013-08-17 18:52:00,
2013-08-17 12:01:00,78.0,50.0,-100.00,North,0,9.0,16.0,37,0.00,,,0.00,908.000000,,2013-08-17 19:01:00,
2013-08-17 12:11:00,78.0,50.0,-100.00,North,0,9.0,16.0,37,0.00,,,0.00,908.000000,,2013-08-17 19:11:00,
2013-08-17 12:42:00,79.0,47.0,-100.00,North,0,10.0,14.0,33,0.00,,,0.00,1022.000000,,2013-08-17 19:42:00,
2013-08-17 12:52:00,79.0,47.0,-100.00,North,0,10.0,14.0,33,0.00,,,0.00,1022.000000,,2013-08-17 19:52:00,
2013-08-17 13:02:00,79.0,47.0,-100.00,North,0,10.0,14.0,33,0.00,,,0.00,1022.000000,,2013-08-17 20:02:00,
2013-08-17 13:11:00,79.0,47.0,-100.00,North,0,10.0,14.0,33,0.00,,,0.00,1022.000000,,2013-08-17 20:11:00,
2013-08-17 13:42:00,80.0,46.0,-100.00,North,0,10.0,16.0,30,0.00,,,0.00,1070.000000,,2013-08-17 20:42:00,
2013-08-17 13:52:00,80.0,46.0,-100.00,North,0,10.0,16.0,30,0.00,,,0.00,1070.000000,,2013-08-17 20:52:00,
2013-08-17 14:01:00,80.0,46.0,-100.00,North,0,10.0,16.0,30,0.00,,,0.00,1070.000000,,2013-08-17 21:01:00,
2013-08-17 14:11:00,80.0,46.0,-100.00,North,0,10.0,16.0,30,0.00,,,0.00,1070.000000,,2013-08-17 21:11:00,
2013-08-17 14:42:00,81.0,46.0,-100.00,North,0,11.0,19.0,29,0.00,,,0.00,1057.000000,,2013-08-17 21:42:00,
2013-08-17 14:53:00,81.0,46.0,-100.00,North,0,11.0,19.0,29,0.00,,,0.00,1057.000000,,2013-08-17 21:53:00,
2013-08-17 15:03:00,81.0,46.0,-100.00,North,0,11.0,19.0,29,0.00,,,0.00,1057.000000,,2013-08-17 22:03:00,
2013-08-17 15:12:00,81.0,46.0,-100.00,North,0,11.0,19.0,29,0.00,,,0.00,1057.000000,,2013-08-17 22:12:00,
2013-08-17 15:42:00,80.0,44.0,-100.00,North,0,11.0,20.0,28,0.00,,,0.00,974.000000,,2013-08-17 22:42:00,
2013-08-17 15:52:00,80.0,44.0,-100.00,North,0,11.0,20.0,28,0.00,,,0.00,974.000000,,2013-08-17 22:52:00,
2013-08-17 16:02:00,80.0,44.0,-100.00,North,0,11.0,20.0,28,0.00,,,0.00,974.000000,,2013-08-17 23:02:00,
2013-08-17 16:11:00,80.0,44.0,-100.00,North,0,11.0,20.0,28,0.00,,,0.00,974.000000,,2013-08-17 23:11:00,
2013-08-17 16:42:00,79.0,44.0,-100.00,North,0,10.0,17.0,29,0.00,,,0.00,823.000000,,2013-08-17 23:42:00,
2013-08-17 16:52:00,79.0,44.0,-100.00,North,0,10.0,17.0,29,0.00,,,0.00,823.000000,,2013-08-17 23:52:00,
2013-08-17 17:01:00,79.0,44.0,-100.00,North,0,10.0,17.0,29,0.00,,,0.00,823.000000,,2013-08-18 00:01:00,
2013-08-17 17:11:00,79.0,44.0,-100.00,North,0,10.0,17.0,29,0.00,,,0.00,823.000000,,2013-08-18 00:11:00,
2013-08-17 17:42:00,76.0,43.0,-100.00,North,0,10.0,15.0,31,0.00,,,0.00,625.000000,,2013-08-18 00:42:00,
2013-08-17 17:52:00,76.0,43.0,-100.00,North,0,10.0,15.0,31,0.00,,,0.00,625.000000,,2013-08-18 00:52:00,
2013-08-17 18:01:00,76.0,43.0,-100.00,North,0,10.0,15.0,31,0.00,,,0.00,625.000000,,2013-08-18 01:01:00,
2013-08-17 18:11:00,76.0,43.0,-100.00,North,0,10.0,15.0,31,0.00,,,0.00,625.000000,,2013-08-18 01:11:00,
2013-08-17 18:52:00,73.0,44.0,-100.00,North,0,9.0,15.0,36,0.00,,,0.00,393.000000,,2013-08-18 01:52:00,
2013-08-17 19:02:00,73.0,44.0,-100.00,North,0,9.0,15.0,36,0.00,,,0.00,393.000000,,2013-08-18 02:02:00,
2013-08-17 19:11:00,73.0,44.0,-100.00,North,0,9.0,15.0,36,0.00,,,0.00,393.000000,,2013-08-18 02:11:00,
2013-08-17 20:11:00,67.0,44.0,-100.00,North,0,7.0,12.0,44,0.00,,,0.00,135.000000,,2013-08-18 03:11:00,
2013-08-17 20:43:00,71.0,41.0,-100.00,North,0,12.0,19.0,34,0.00,,,0.00,6.000000,,2013-08-18 03:43:00,
2013-08-17 20:53:00,71.0,41.0,-100.00,North,0,12.0,19.0,34,0.00,,,0.00,6.000000,,2013-08-18 03:53:00,
2013-08-17 21:02:00,-999.0,-99.9,-100.00,North,0,12.0,19.0,-999,0.00,,,0.00,6.000000,,2013-08-18 04:02:00,
2013-08-17 21:12:00,71.0,41.0,-100.00,North,0,12.0,19.0,34,0.00,,,0.00,6.000000,,2013-08-18 04:12:00,
2013-08-17 21:42:00,69.0,43.0,-100.00,North,0,11.0,18.0,39,0.00,,,0.00,3.000000,,2013-08-18 04:42:00,
2013-08-17 21:53:00,69.0,43.0,-100.00,North,0,11.0,18.0,39,0.00,,,0.00,3.000000,,2013-08-18 04:53:00,
2013-08-17 22:02:00,69.0,43.0,-100.00,North,0,11.0,18.0,39,0.00,,,0.00,3.000000,,2013-08-18 05:02:00,
2013-08-17 22:12:00,69.0,43.0,-100.00,North,0,11.0,18.0,39,0.00,,,0.00,3.000000,,2013-08-18 05:12:00,
2013-08-17 22:42:00,71.0,44.0,-100.00,North,0,12.0,17.0,38,0.00,,,0.00,3.000000,,2013-08-18 05:42:00,
2013-08-17 22:52:00,71.0,44.0,-100.00,North,0,12.0,17.0,38,0.00,,,0.00,3.000000,,2013-08-18 05:52:00,
2013-08-17 23:01:00,71.0,44.0,-100.00,North,0,12.0,17.0,38,0.00,,,0.00,3.000000,,2013-08-18 06:01:00,
2013-08-17 23:11:00,71.0,44.0,-100.00,North,0,12.0,17.0,38,0.00,,,0.00,3.000000,,2013-08-18 06:11:00,
2013-08-17 23:42:00,71.0,44.0,-100.00,North,0,11.0,17.0,38,0.00,,,0.00,3.000000,,2013-08-18 06:42:00,
2013-08-17 23:52:00,71.0,44.0,-100.00,North,0,11.0,17.0,38,0.00,,,0.00,3.000000,,2013-08-18 06:52:00,